createdAt,value
2017-12-01T00:02:07.760Z,40.13
2017-12-01T00:04:35.147Z,33.33
2017-12-01T00:07:02.545Z,37.27
2017-12-01T00:09:29.943Z,33.80
2017-12-01T00:11:57.331Z,34.13
2017-12-01T00:14:24.714Z,31.00
2017-12-01T00:16:52.106Z,29.13
2017-12-01T00:19:19.506Z,33.80
2017-12-01T00:21:46.903Z,30.97
2017-12-01T00:24:14.286Z,32.73
2017-12-01T00:26:41.685Z,29.70
2017-12-01T00:29:09.074Z,31.07
2017-12-01T00:31:36.478Z,31.47
2017-12-01T00:34:03.871Z,31.10
2017-12-01T00:36:31.333Z,32.33
2017-12-01T00:38:58.726Z,32.23
2017-12-01T00:41:26.165Z,27.70
2017-12-01T00:43:53.554Z,29.80
2017-12-01T00:46:20.942Z,29.57
2017-12-01T00:48:48.334Z,33.13
2017-12-01T00:51:15.775Z,38.47
2017-12-01T00:53:43.166Z,32.93
2017-12-01T00:56:10.582Z,31.40
2017-12-01T00:58:37.969Z,30.77
2017-12-01T01:01:05.367Z,31.60
2017-12-01T01:03:32.763Z,37.60
2017-12-01T01:06:00.206Z,35.00
2017-12-01T01:08:27.594Z,31.90
2017-12-01T01:10:55.013Z,32.07
2017-12-01T01:13:22.409Z,33.60
2017-12-01T01:15:49.802Z,34.33
2017-12-01T01:18:17.204Z,31.13
2017-12-01T01:20:44.603Z,33.60
2017-12-01T01:23:12.000Z,39.33
2017-12-01T01:25:39.452Z,35.33
2017-12-01T01:28:06.897Z,34.37
2017-12-01T01:30:34.287Z,43.10
2017-12-01T01:33:01.682Z,39.23
2017-12-01T01:35:29.077Z,40.03
2017-12-01T01:37:56.487Z,39.17
2017-12-01T01:40:23.887Z,44.33
2017-12-01T01:42:51.282Z,45.43
2017-12-01T01:45:18.669Z,43.10
2017-12-01T01:47:46.148Z,65.87
2017-12-01T01:50:13.603Z,44.07
2017-12-01T01:52:41.066Z,45.97
2017-12-01T01:55:08.515Z,57.20
2017-12-01T01:57:35.921Z,50.67
2017-12-01T02:00:03.883Z,47.10
2017-12-01T02:02:31.311Z,43.80
2017-12-01T02:04:58.698Z,45.93
2017-12-01T02:07:26.213Z,47.37
2017-12-01T02:09:53.598Z,60.30
2017-12-01T02:12:21.039Z,46.90
2017-12-01T02:14:48.435Z,51.13
2017-12-01T02:17:15.839Z,48.20
2017-12-01T02:19:43.296Z,47.93
2017-12-01T02:22:10.694Z,49.90
2017-12-01T02:24:38.077Z,59.80
2017-12-01T02:27:05.468Z,50.17
2017-12-01T02:29:32.872Z,47.50
2017-12-01T02:32:00.358Z,49.90
2017-12-01T02:34:27.776Z,43.87
2017-12-01T02:36:55.287Z,49.47
2017-12-01T02:39:22.694Z,52.50
2017-12-01T02:41:50.079Z,52.70
2017-12-01T02:44:17.473Z,53.40
2017-12-01T02:46:44.870Z,50.97
2017-12-01T02:49:12.273Z,48.40
2017-12-01T02:51:39.667Z,56.53
2017-12-01T02:54:07.071Z,46.10
2017-12-01T02:56:34.458Z,46.10
2017-12-01T02:59:01.860Z,61.17
2017-12-01T03:01:29.255Z,51.60
2017-12-01T03:03:56.662Z,47.23
2017-12-01T03:06:24.042Z,46.00
2017-12-01T03:08:51.442Z,56.70
2017-12-01T03:11:18.837Z,52.13
2017-12-01T03:13:46.258Z,55.00
2017-12-01T03:16:13.645Z,48.13
2017-12-01T03:18:41.039Z,46.43
2017-12-01T03:21:08.435Z,42.87
2017-12-01T03:23:35.838Z,43.87
2017-12-01T03:26:04.031Z,53.03
2017-12-01T03:28:31.437Z,49.83
2017-12-01T03:30:58.899Z,54.28
2017-12-01T03:33:26.363Z,46.80
2017-12-01T03:35:53.753Z,45.70
2017-12-01T03:38:21.164Z,42.43
2017-12-01T03:40:48.559Z,42.97
2017-12-01T03:43:15.942Z,42.17
2017-12-01T03:45:43.343Z,48.10
2017-12-01T03:48:10.735Z,45.50
2017-12-01T03:50:38.126Z,42.90
2017-12-01T03:53:05.518Z,46.13
2017-12-01T03:55:32.926Z,52.17
2017-12-01T03:58:00.339Z,54.67
2017-12-01T04:00:27.737Z,46.07
2017-12-01T04:02:55.162Z,45.17
2017-12-01T04:05:22.563Z,53.33
2017-12-01T04:07:49.974Z,50.27
2017-12-01T04:10:17.422Z,59.30
2017-12-01T04:12:44.818Z,47.87
2017-12-01T04:15:12.214Z,46.53
2017-12-01T04:17:39.602Z,47.73
2017-12-01T04:20:07.106Z,45.43
2017-12-01T04:22:34.510Z,41.00
2017-12-01T04:25:01.920Z,42.27
2017-12-01T04:27:29.314Z,43.87
2017-12-01T04:29:56.714Z,43.77
2017-12-01T04:32:24.115Z,46.27
2017-12-01T04:34:51.510Z,44.53
2017-12-01T04:37:18.906Z,49.00
2017-12-01T04:39:46.326Z,40.37
2017-12-01T04:42:13.774Z,55.00
2017-12-01T04:44:41.161Z,47.60
2017-12-01T04:47:08.551Z,50.30
2017-12-01T04:49:35.942Z,46.20
2017-12-01T04:52:03.340Z,48.77
2017-12-01T04:54:30.722Z,50.50
2017-12-01T04:56:58.163Z,46.33
2017-12-01T04:59:25.530Z,47.67
2017-12-01T05:01:52.956Z,43.00
2017-12-01T05:04:20.334Z,50.07
2017-12-01T05:06:47.750Z,53.93
2017-12-01T05:09:15.147Z,46.20
2017-12-01T05:11:42.543Z,45.87
2017-12-01T05:14:09.938Z,50.80
2017-12-01T05:16:37.365Z,46.33
2017-12-01T05:19:04.751Z,47.17
2017-12-01T05:21:32.150Z,45.53
2017-12-01T05:23:59.538Z,45.60
2017-12-01T05:26:26.933Z,41.63
2017-12-01T05:28:54.354Z,47.10
2017-12-01T05:31:21.826Z,48.93
2017-12-01T05:33:49.227Z,45.27
2017-12-01T05:36:16.637Z,54.10
2017-12-01T05:38:44.026Z,45.53
2017-12-01T05:41:11.431Z,48.03
2017-12-01T05:43:38.823Z,50.60
2017-12-01T05:46:06.230Z,51.13
2017-12-01T05:48:33.622Z,54.73
2017-12-01T05:51:01.020Z,54.60
2017-12-01T05:53:28.518Z,51.67
2017-12-01T05:55:55.962Z,54.30
2017-12-01T05:58:23.418Z,58.30
2017-12-01T06:00:50.874Z,59.03
2017-12-01T06:03:18.263Z,56.00
2017-12-01T06:05:45.657Z,58.37
2017-12-01T06:08:13.054Z,64.07
2017-12-01T06:10:40.518Z,54.57
2017-12-01T06:13:08.074Z,60.73
2017-12-01T06:15:35.535Z,57.33
2017-12-01T06:18:02.986Z,55.90
2017-12-01T06:20:30.378Z,53.07
2017-12-01T06:22:57.782Z,55.57
2017-12-01T06:25:25.253Z,57.07
2017-12-01T06:27:52.650Z,44.07
2017-12-01T06:30:20.040Z,46.23
2017-12-01T06:32:47.437Z,42.13
2017-12-01T06:35:14.841Z,57.13
2017-12-01T06:37:42.251Z,50.40
2017-12-01T06:40:09.686Z,46.13
2017-12-01T06:42:37.142Z,49.30
2017-12-01T06:45:04.603Z,48.30
2017-12-01T06:47:32.003Z,42.53
2017-12-01T06:49:59.409Z,52.40
2017-12-01T06:52:26.815Z,41.30
2017-12-01T06:54:54.204Z,44.53
2017-12-01T06:57:21.624Z,46.27
2017-12-01T06:59:49.022Z,40.30
2017-12-01T07:02:16.411Z,42.57
2017-12-01T07:04:43.802Z,45.77
2017-12-01T07:07:11.200Z,41.30
2017-12-01T07:09:38.622Z,45.63
2017-12-01T07:12:06.010Z,40.73
2017-12-01T07:14:33.402Z,45.20
2017-12-01T07:17:00.794Z,43.33
2017-12-01T07:19:28.189Z,40.07
2017-12-01T07:21:55.588Z,34.70
2017-12-01T07:24:23.083Z,40.30
2017-12-01T07:27:02.380Z,40.63
2017-12-01T07:29:29.767Z,48.57
2017-12-01T07:31:57.190Z,40.63
2017-12-01T07:34:24.580Z,40.60
2017-12-01T07:36:51.976Z,35.57
2017-12-01T07:39:19.366Z,41.40
2017-12-01T07:41:46.757Z,42.93
2017-12-01T07:44:16.063Z,49.70
2017-12-01T07:46:43.449Z,41.70
2017-12-01T07:49:10.870Z,41.87
2017-12-01T07:51:38.241Z,36.50
2017-12-01T07:54:05.643Z,40.03
2017-12-01T07:56:33.030Z,45.33
2017-12-01T07:59:00.659Z,43.07
2017-12-01T08:01:28.042Z,40.23
2017-12-01T08:03:55.435Z,42.23
2017-12-01T08:06:22.823Z,40.20
2017-12-01T08:08:50.223Z,35.67
2017-12-01T08:11:17.614Z,40.73
2017-12-01T08:13:45.035Z,36.07
2017-12-01T08:16:24.166Z,32.20
2017-12-01T08:19:02.430Z,38.73
2017-12-01T08:21:41.592Z,43.23
2017-12-01T08:24:20.830Z,38.10
2017-12-01T08:26:48.224Z,39.60
2017-12-01T08:29:15.639Z,39.43
2017-12-01T08:31:43.035Z,43.37
2017-12-01T08:34:10.424Z,43.17
2017-12-01T08:36:37.829Z,45.40
2017-12-01T08:39:05.206Z,40.30
2017-12-01T08:41:32.673Z,46.53
2017-12-01T08:44:00.123Z,48.07
2017-12-01T08:46:27.586Z,41.87
2017-12-01T08:48:55.041Z,49.60
2017-12-01T08:51:22.493Z,49.73
2017-12-01T08:53:49.886Z,49.30
2017-12-01T08:56:17.312Z,49.13
2017-12-01T08:58:44.715Z,47.13
2017-12-01T09:01:12.214Z,43.67
2017-12-01T09:03:39.606Z,49.10
2017-12-01T09:06:07.011Z,50.90
2017-12-01T09:08:34.398Z,48.67
2017-12-01T09:11:01.834Z,43.67
2017-12-01T09:13:29.301Z,44.13
2017-12-01T09:15:56.642Z,57.37
2017-12-01T09:18:24.050Z,47.23
2017-12-01T09:20:51.443Z,47.47
2017-12-01T09:23:18.845Z,44.33
2017-12-01T09:25:46.286Z,49.07
2017-12-01T09:28:13.690Z,42.03
2017-12-01T09:30:41.193Z,44.13
2017-12-01T09:33:08.669Z,40.77
2017-12-01T09:35:36.074Z,43.87
2017-12-01T09:38:03.562Z,46.30
2017-12-01T09:40:30.974Z,41.57
2017-12-01T09:42:58.358Z,41.17
2017-12-01T09:45:25.826Z,33.60
2017-12-01T09:47:53.222Z,40.40
2017-12-01T09:50:20.613Z,42.90
2017-12-01T09:52:48.002Z,40.00
2017-12-01T09:55:15.458Z,35.97
2017-12-01T09:57:42.909Z,40.20
2017-12-01T10:00:10.362Z,39.27
2017-12-01T10:02:37.756Z,36.20
2017-12-01T10:05:05.258Z,33.50
2017-12-01T10:07:32.650Z,37.20
2017-12-01T10:10:00.051Z,35.83
2017-12-01T10:12:27.445Z,35.40
2017-12-01T10:14:54.843Z,33.43
2017-12-01T10:17:22.253Z,39.20
2017-12-01T10:19:49.651Z,33.83
2017-12-01T10:22:17.042Z,30.80
2017-12-01T10:24:44.518Z,37.37
2017-12-01T10:27:11.920Z,32.87
2017-12-01T10:29:39.318Z,27.30
2017-12-01T10:32:06.783Z,34.83
2017-12-01T10:34:34.245Z,35.30
2017-12-01T10:37:01.664Z,31.77
2017-12-01T10:39:29.050Z,36.37
2017-12-01T10:41:56.511Z,32.97
2017-12-01T10:44:23.968Z,34.63
2017-12-01T10:46:51.362Z,34.50
2017-12-01T10:49:18.777Z,30.93
2017-12-01T10:51:46.175Z,30.63
2017-12-01T10:54:13.563Z,32.07
2017-12-01T10:56:40.978Z,35.60
2017-12-01T10:59:08.371Z,31.40
2017-12-01T11:01:35.855Z,28.60
2017-12-01T11:04:03.314Z,33.07
2017-12-01T11:06:30.711Z,32.77
2017-12-01T11:08:58.103Z,31.50
2017-12-01T11:11:25.544Z,34.30
2017-12-01T11:13:52.900Z,30.03
2017-12-01T11:16:20.290Z,28.10
2017-12-01T11:18:47.678Z,30.90
2017-12-01T11:21:15.078Z,34.87
2017-12-01T11:23:42.563Z,30.53
2017-12-01T11:26:10.009Z,31.40
2017-12-01T11:28:37.466Z,29.03
2017-12-01T11:31:04.866Z,34.80
2017-12-01T11:33:32.279Z,28.07
2017-12-01T11:35:59.675Z,28.77
2017-12-01T11:38:27.063Z,31.73
2017-12-01T11:40:54.458Z,31.33
2017-12-01T11:43:21.853Z,29.13
2017-12-01T11:45:49.268Z,30.80
2017-12-01T11:48:16.662Z,28.70
2017-12-01T11:50:44.060Z,31.47
2017-12-01T11:53:11.461Z,32.10
2017-12-01T11:55:38.902Z,27.67
2017-12-01T11:58:06.294Z,34.20
2017-12-01T12:00:35.042Z,31.10
2017-12-01T12:03:02.434Z,26.10
2017-12-01T12:05:29.925Z,29.63
2017-12-01T12:07:57.320Z,31.63
2017-12-01T12:10:24.727Z,34.03
2017-12-01T12:12:52.131Z,33.47
2017-12-01T12:15:19.546Z,30.73
2017-12-01T12:17:46.941Z,36.50
2017-12-01T12:20:14.362Z,37.63
2017-12-01T12:22:41.817Z,40.73
2017-12-01T12:25:09.219Z,31.83
2017-12-01T12:27:36.640Z,33.90
2017-12-01T12:30:04.049Z,38.87
2017-12-01T12:32:32.135Z,29.60
2017-12-01T12:34:59.550Z,32.73
2017-12-01T12:37:26.962Z,31.17
2017-12-01T12:39:54.450Z,31.83
2017-12-01T12:42:21.842Z,32.83
2017-12-01T12:44:49.238Z,33.43
2017-12-01T12:47:16.634Z,32.10
2017-12-01T12:49:44.038Z,49.93
2017-12-01T12:52:11.428Z,32.17
2017-12-01T12:54:38.818Z,32.23
2017-12-01T12:57:06.211Z,34.60
2017-12-01T12:59:33.606Z,34.77
2017-12-01T13:02:01.039Z,31.60
2017-12-01T13:04:28.430Z,33.37
2017-12-01T13:06:55.834Z,35.63
2017-12-01T13:09:23.230Z,30.87
2017-12-01T13:11:50.631Z,33.10
2017-12-01T13:14:18.031Z,31.00
2017-12-01T13:16:45.428Z,29.97
2017-12-01T13:19:12.848Z,28.47
2017-12-01T13:21:40.230Z,32.00
2017-12-01T13:24:07.639Z,30.87
2017-12-01T13:26:35.056Z,34.40
2017-12-01T13:29:02.456Z,29.40
2017-12-01T13:31:29.842Z,29.87
2017-12-01T13:33:57.352Z,29.77
2017-12-01T13:36:24.738Z,29.30
2017-12-01T13:38:52.134Z,32.13
2017-12-01T13:41:19.524Z,27.13
2017-12-01T13:43:46.918Z,33.30
2017-12-01T13:46:14.337Z,31.93
2017-12-01T13:48:41.735Z,34.33
2017-12-01T13:51:09.132Z,32.20
2017-12-01T13:53:36.549Z,27.33
2017-12-01T13:56:03.927Z,28.97
2017-12-01T13:58:31.319Z,29.57
2017-12-01T14:00:58.729Z,30.27
2017-12-01T14:03:26.115Z,24.87
2017-12-01T14:05:53.501Z,27.07
2017-12-01T14:08:20.253Z,33.13
2017-12-01T14:10:47.649Z,27.63
2017-12-01T14:13:15.066Z,26.87
2017-12-01T14:15:42.474Z,29.27
2017-12-01T14:18:09.866Z,32.30
2017-12-01T14:20:37.275Z,31.73
2017-12-01T14:23:04.743Z,29.37
2017-12-01T14:25:32.142Z,35.47
2017-12-01T14:27:59.538Z,32.73
2017-12-01T14:30:27.010Z,34.90
2017-12-01T14:32:54.402Z,31.23
2017-12-01T14:35:21.806Z,28.77
2017-12-01T14:37:49.270Z,30.43
2017-12-01T14:40:16.667Z,36.73
2017-12-01T14:42:44.082Z,40.73
2017-12-01T14:45:11.538Z,30.37
2017-12-01T14:47:38.923Z,31.13
2017-12-01T14:50:06.332Z,39.80
2017-12-01T14:52:33.723Z,34.70
2017-12-01T14:55:01.159Z,36.10
2017-12-01T14:57:28.554Z,34.40
2017-12-01T14:59:55.971Z,34.80
2017-12-01T15:02:23.359Z,28.43
2017-12-01T15:04:50.749Z,28.60
2017-12-01T15:07:18.144Z,31.63
2017-12-01T15:09:45.543Z,28.00
2017-12-01T15:12:12.947Z,34.03
2017-12-01T15:14:40.373Z,53.50
2017-12-01T15:17:07.760Z,35.30
2017-12-01T15:19:35.270Z,38.87
2017-12-01T15:22:02.675Z,35.60
2017-12-01T15:24:30.074Z,36.37
2017-12-01T15:26:57.498Z,40.70
2017-12-01T15:29:24.886Z,44.00
2017-12-01T15:31:52.339Z,40.37
2017-12-01T15:34:19.738Z,38.97
2017-12-01T15:36:47.139Z,37.70
2017-12-01T15:39:14.524Z,37.17
2017-12-01T15:41:41.915Z,34.00
2017-12-01T15:44:09.310Z,33.97
2017-12-01T15:46:36.705Z,35.80
2017-12-01T15:49:04.194Z,34.37
2017-12-01T15:51:31.646Z,32.63
2017-12-01T15:53:59.047Z,34.83
2017-12-01T15:56:26.442Z,33.60
2017-12-01T15:58:53.839Z,34.37
2017-12-01T16:01:21.273Z,34.90
2017-12-01T16:03:48.682Z,37.87
2017-12-01T16:06:16.066Z,31.17
2017-12-01T16:08:43.534Z,32.97
2017-12-01T16:11:10.998Z,35.50
2017-12-01T16:13:38.400Z,47.23
2017-12-01T16:16:05.786Z,45.00
2017-12-01T16:18:33.198Z,36.00
2017-12-01T16:21:00.587Z,39.27
2017-12-01T16:23:28.071Z,35.70
2017-12-01T16:25:55.463Z,31.43
2017-12-01T16:28:22.855Z,34.13
2017-12-01T16:30:50.334Z,37.07
2017-12-01T16:33:17.805Z,37.40
2017-12-01T16:35:45.198Z,38.40
2017-12-01T16:38:12.674Z,36.30
2017-12-01T16:40:40.063Z,36.23
2017-12-01T16:43:07.520Z,34.23
2017-12-01T16:45:34.974Z,35.37
2017-12-01T16:48:02.430Z,42.07
2017-12-01T16:50:29.817Z,43.50
2017-12-01T16:52:57.210Z,35.27
2017-12-01T16:55:24.699Z,39.30
2017-12-01T16:57:52.086Z,36.77
2017-12-01T17:00:19.478Z,41.73
2017-12-01T17:02:46.963Z,41.07
2017-12-01T17:05:14.418Z,38.40
2017-12-01T17:07:41.802Z,39.23
2017-12-01T17:10:09.264Z,45.23
2017-12-01T17:12:36.687Z,39.33
2017-12-01T17:15:04.090Z,44.83
2017-12-01T17:17:31.510Z,39.07
2017-12-01T17:19:58.894Z,39.67
2017-12-01T17:22:26.307Z,44.50
2017-12-01T17:24:53.817Z,38.43
2017-12-01T17:27:21.167Z,46.50
2017-12-01T17:29:48.575Z,50.33
2017-12-01T17:32:15.974Z,43.80
2017-12-01T17:34:43.386Z,45.50
2017-12-01T17:37:10.783Z,52.80
2017-12-01T17:39:38.190Z,46.63
2017-12-01T17:42:05.582Z,43.97
2017-12-01T17:44:33.006Z,45.20
2017-12-01T17:47:00.398Z,47.70
2017-12-01T17:49:27.806Z,43.63
2017-12-01T17:51:55.261Z,47.50
2017-12-01T17:54:22.674Z,53.60
2017-12-01T17:56:50.071Z,43.77
2017-12-01T17:59:17.530Z,43.50
2017-12-01T18:01:44.929Z,41.27
2017-12-01T18:04:12.327Z,40.73
2017-12-01T18:06:39.720Z,49.13
2017-12-01T18:09:07.154Z,45.93
2017-12-01T18:11:34.610Z,51.20
2017-12-01T18:14:02.054Z,48.43
2017-12-01T18:16:29.451Z,52.67
2017-12-01T18:18:56.858Z,51.33
2017-12-01T18:21:24.246Z,46.00
2017-12-01T18:23:51.685Z,55.47
2017-12-01T18:26:19.146Z,62.33
2017-12-01T18:28:46.607Z,54.13
2017-12-01T18:31:14.010Z,52.53
2017-12-01T18:33:41.437Z,60.63
2017-12-01T18:36:08.871Z,57.40
2017-12-01T18:38:36.266Z,62.23
2017-12-01T18:41:03.683Z,48.33
2017-12-01T18:43:31.087Z,57.80
2017-12-01T18:45:58.614Z,45.50
2017-12-01T18:48:26.010Z,48.27
2017-12-01T18:50:53.418Z,51.30
2017-12-01T18:53:20.826Z,45.63
2017-12-01T18:55:48.305Z,53.20
2017-12-01T18:58:15.764Z,54.00
2017-12-01T19:00:43.193Z,41.83
2017-12-01T19:03:10.589Z,52.43
2017-12-01T19:05:37.995Z,56.63
2017-12-01T19:08:06.650Z,50.03
2017-12-01T19:10:34.078Z,46.50
2017-12-01T19:13:01.529Z,57.07
2017-12-01T19:15:28.990Z,57.50
2017-12-01T19:17:56.374Z,56.23
2017-12-01T19:20:23.779Z,55.10
2017-12-01T19:22:51.174Z,61.90
2017-12-01T19:25:18.571Z,64.73
2017-12-01T19:27:45.982Z,47.10
2017-12-01T19:30:13.385Z,47.03
2017-12-01T19:41:06.911Z,68.30
2017-12-01T19:43:34.398Z,57.07
2017-12-01T19:46:01.799Z,67.97
2017-12-01T19:48:29.190Z,66.07
2017-12-01T19:50:56.590Z,72.93
2017-12-01T19:53:24.015Z,58.90
2017-12-01T19:55:51.427Z,66.20
2017-12-01T19:58:18.831Z,77.83
2017-12-01T20:00:46.229Z,63.80
2017-12-01T20:03:13.755Z,71.07
2017-12-01T20:05:41.203Z,62.23
2017-12-01T20:08:08.664Z,72.97
2017-12-01T20:10:36.056Z,58.10
2017-12-01T20:13:03.510Z,80.73
2017-12-01T20:15:30.906Z,79.63
2017-12-01T20:17:58.293Z,72.60
2017-12-01T20:20:25.688Z,81.40
2017-12-01T20:22:53.175Z,69.97
2017-12-01T20:25:20.565Z,64.00
2017-12-01T20:27:47.985Z,65.40
2017-12-01T20:30:15.394Z,67.63
2017-12-01T20:32:42.806Z,63.13
2017-12-01T20:35:10.305Z,54.30
2017-12-01T20:37:37.729Z,58.13
2017-12-01T20:40:05.246Z,50.70
2017-12-01T20:42:32.874Z,58.10
2017-12-01T20:45:00.395Z,64.70
2017-12-01T20:47:27.799Z,57.50
2017-12-01T20:49:55.193Z,63.47
2017-12-01T21:01:09.839Z,70.20
2017-12-01T21:03:37.298Z,81.20
2017-12-01T21:06:06.251Z,80.60
2017-12-01T21:08:33.658Z,77.67
2017-12-01T21:11:01.081Z,71.37
2017-12-01T21:13:31.842Z,80.07
2017-12-01T21:21:51.843Z,65.00
2017-12-01T21:24:19.401Z,89.00
2017-12-01T21:26:46.799Z,70.37
2017-12-01T21:29:14.195Z,81.77
2017-12-01T21:31:41.594Z,74.00
2017-12-01T21:34:09.002Z,65.30
2017-12-01T21:36:36.495Z,60.07
2017-12-01T21:39:03.898Z,76.03
2017-12-01T21:41:31.278Z,68.80
2017-12-01T21:43:58.674Z,78.67
2017-12-01T21:46:26.112Z,75.53
2017-12-01T21:48:53.511Z,77.67
2017-12-01T21:51:20.897Z,89.17
2017-12-01T21:53:48.334Z,74.47
2017-12-01T21:56:15.735Z,80.47
2017-12-01T21:58:43.127Z,72.93
2017-12-01T22:01:10.516Z,83.87
2017-12-01T22:03:37.962Z,84.20
2017-12-01T22:06:05.418Z,79.77
2017-12-01T22:08:32.818Z,74.83
2017-12-01T22:11:00.215Z,77.00
2017-12-01T22:13:27.612Z,78.83
2017-12-01T22:15:55.007Z,81.60
2017-12-01T22:18:22.415Z,76.77
2017-12-01T22:20:49.809Z,69.83
2017-12-01T22:23:17.213Z,72.33
2017-12-01T22:25:44.597Z,76.00
2017-12-01T22:28:12.005Z,76.37
2017-12-01T22:30:43.686Z,68.90
2017-12-01T22:33:11.189Z,64.60
2017-12-01T22:35:38.706Z,78.97
2017-12-01T22:38:06.144Z,77.30
2017-12-01T22:40:33.595Z,65.13
2017-12-01T22:43:01.050Z,65.33
2017-12-01T22:45:28.442Z,59.77
2017-12-01T22:47:55.854Z,66.10
2017-12-01T22:50:23.250Z,60.97
2017-12-01T22:52:50.646Z,51.30
2017-12-01T22:55:18.042Z,61.33
2017-12-01T22:57:45.484Z,62.20
2017-12-01T23:00:12.959Z,66.77
2017-12-01T23:02:40.359Z,61.17
2017-12-01T23:05:07.867Z,57.20
2017-12-01T23:07:35.251Z,58.03
2017-12-01T23:10:02.663Z,58.70
2017-12-01T23:12:30.058Z,64.83
2017-12-01T23:14:57.461Z,62.20
2017-12-01T23:17:24.854Z,67.90
2017-12-01T23:19:52.258Z,60.03
2017-12-01T23:22:19.737Z,56.50
2017-12-01T23:24:47.127Z,58.53
2017-12-01T23:27:14.513Z,56.03
2017-12-01T23:29:42.010Z,55.67
2017-12-01T23:32:09.419Z,51.77
2017-12-01T23:34:36.828Z,57.93
2017-12-01T23:37:04.219Z,54.47
2017-12-01T23:39:31.638Z,63.60
2017-12-01T23:41:59.025Z,53.60
2017-12-01T23:44:26.430Z,53.70
2017-12-01T23:46:53.900Z,54.10
2017-12-01T23:49:21.296Z,56.77
2017-12-01T23:51:48.794Z,48.97
2017-12-01T23:54:16.258Z,41.70
2017-12-01T23:56:43.654Z,44.77
2017-12-01T23:59:11.067Z,48.73
